Time;durP1;ratioP1;P1;durP2;ratioP2;P2;SDS_P1;SDS_P2;PMS_P1;PMS_P2;Temp;Humidity;BMP_temperature;BMP_pressure;BME280_temperature;BME280_humidity;BME280_pressure;Samples;Min_cycle;Max_cycle;Signal;HPM_P1;HPM_P2
2021/06/01 00:00:51;;;;;;;3.28;2.55;;;;;;;11.92;60.41;94393.94;2959411;40;20220;-70
2021/06/01 00:02:53;;;;;;;3.72;2.90;;;;;;;12.00;59.88;94393.88;2969099;39;20063;-71
2021/06/01 00:04:55;;;;;;;3.40;2.90;;;;;;;12.08;59.72;94387.75;2969836;39;20057;-72
2021/06/01 00:06:57;;;;;;;2.85;2.50;;;;;;;12.05;59.32;94388.09;2970013;39;20060;-71
2021/06/01 00:08:59;;;;;;;3.25;2.60;;;;;;;12.07;59.51;94380.88;2970338;39;20063;-71
2021/06/01 00:11:01;;;;;;;3.55;2.20;;;;;;;12.06;59.84;94382.66;2968771;39;20331;-70
2021/06/01 00:13:03;;;;;;;2.90;2.47;;;;;;;12.05;59.95;94381.03;2966316;39;20048;-71
2021/06/01 00:15:07;;;;;;;2.55;2.15;;;;;;;12.01;59.82;94376.31;2968044;39;20059;-71
2021/06/01 00:17:09;;;;;;;3.05;2.55;;;;;;;11.99;59.83;94376.50;2966682;39;20052;-71
2021/06/01 00:19:11;;;;;;;3.17;2.38;;;;;;;12.02;59.85;94370.06;2966833;40;20072;-69
2021/06/01 00:21:13;;;;;;;2.85;2.35;;;;;;;12.02;59.96;94370.06;2972724;39;20225;-70
2021/06/01 00:23:15;;;;;;;3.10;2.50;;;;;;;12.08;59.88;94362.31;2965514;40;20057;-70
2021/06/01 00:25:17;;;;;;;3.58;2.50;;;;;;;12.09;59.90;94365.75;2973247;40;20068;-70
2021/06/01 00:27:18;;;;;;;3.17;2.45;;;;;;;12.02;60.29;94362.19;2973123;39;20080;-70
2021/06/01 00:29:20;;;;;;;3.08;2.28;;;;;;;11.98;60.23;94360.91;2971694;39;20050;-71
2021/06/01 00:31:22;;;;;;;3.10;2.55;;;;;;;11.86;60.75;94356.03;2967566;40;20129;-70
2021/06/01 00:33:24;;;;;;;2.90;2.50;;;;;;;11.84;60.86;94354.59;2966958;39;20138;-70
2021/06/01 00:35:26;;;;;;;3.35;2.78;;;;;;;11.82;61.06;94353.94;2968595;39;20068;-70
2021/06/01 00:37:27;;;;;;;2.90;2.40;;;;;;;11.86;61.19;94352.59;2970872;39;20064;-69
2021/06/01 00:39:29;;;;;;;3.55;2.95;;;;;;;11.81;61.28;94349.72;2969337;39;20068;-68
2021/06/01 00:41:31;;;;;;;3.65;2.97;;;;;;;11.81;61.21;94347.09;2971763;39;20063;-70
2021/06/01 00:43:34;;;;;;;4.72;3.00;;;;;;;11.78;61.45;94347.41;2973506;39;20479;-69
2021/06/01 00:45:36;;;;;;;3.20;2.67;;;;;;;11.79;60.90;94341.19;2974980;39;20052;-70
2021/06/01 00:47:37;;;;;;;3.47;2.60;;;;;;;11.77;61.41;94348.41;2975450;39;20047;-69
2021/06/01 00:49:39;;;;;;;3.22;2.65;;;;;;;11.77;61.16;94349.22;2976385;39;20055;-71
2021/06/01 00:51:41;;;;;;;3.20;2.80;;;;;;;11.77;61.20;94348.41;2972058;39;20060;-71
2021/06/01 00:53:43;;;;;;;2.92;2.45;;;;;;;11.76;61.16;94344.94;2964344;40;20052;-69
2021/06/01 00:55:45;;;;;;;3.30;2.60;;;;;;;11.75;60.93;94338.09;2972639;39;20100;-71
2021/06/01 00:57:47;;;;;;;3.22;2.70;;;;;;;11.65;61.15;94342.75;2974663;39;20052;-70
2021/06/01 00:59:48;;;;;;;3.55;2.47;;;;;;;11.65;61.20;94340.94;2971498;40;20084;-70
2021/06/01 01:01:50;;;;;;;3.47;2.70;;;;;;;11.60;61.12;94345.09;2970720;39;20137;-71
2021/06/01 01:03:53;;;;;;;4.68;2.80;;;;;;;11.58;61.01;94344.44;2971080;39;20185;-71
2021/06/01 01:06:03;;;;;;;3.00;2.45;;;;;;;11.60;60.92;94352.94;2969264;40;20455;-69
2021/06/01 01:08:31;;;;;;;4.10;3.20;;;;;;;11.60;60.93;94355.56;2971611;40;21022;-70
2021/06/01 01:10:36;;;;;;;4.13;2.60;;;;;;;11.67;60.95;94357.31;2967167;39;20171;-70
2021/06/01 01:12:50;;;;;;;2.88;2.47;;;;;;;11.69;61.49;94350.09;2979882;39;20071;-69
2021/06/01 01:14:59;;;;;;;4.10;3.08;;;;;;;11.58;61.89;94355.75;2971419;40;20140;-70
2021/06/01 01:17:03;;;;;;;3.65;2.90;;;;;;;11.60;61.58;94345.09;2973054;39;20073;-70
2021/06/01 01:19:13;;;;;;;3.50;3.03;;;;;;;11.72;61.77;94348.91;2971063;40;20113;-68
2021/06/01 01:21:20;;;;;;;6.03;3.45;;;;;;;11.75;61.61;94353.03;2959998;40;20060;-69
2021/06/01 01:23:26;;;;;;;5.18;3.17;;;;;;;11.85;61.07;94348.34;2958852;40;20066;-69
2021/06/01 01:25:36;;;;;;;3.97;2.95;;;;;;;11.90;61.01;94347.88;2968793;40;20063;-70
